createdAt,value
2018-10-06T00:01:18.347Z,24.60
2018-10-06T00:06:25.076Z,25.73
2018-10-06T00:11:29.049Z,39.70
2018-10-06T00:16:32.632Z,19.87
2018-10-06T00:21:36.230Z,31.10
2018-10-06T00:26:39.894Z,35.37
2018-10-06T00:31:44.487Z,40.17
2018-10-06T00:36:48.939Z,48.67
2018-10-06T00:41:52.759Z,35.73
2018-10-06T00:46:57.105Z,32.33
2018-10-06T00:52:01.028Z,33.93
2018-10-06T00:57:05.020Z,41.47
2018-10-06T01:02:08.622Z,47.87
2018-10-06T01:07:12.509Z,67.13
2018-10-06T01:12:23.922Z,43.60
2018-10-06T01:17:29.199Z,39.57
2018-10-06T01:22:33.087Z,43.10
2018-10-06T01:27:37.252Z,42.57
2018-10-06T01:32:40.816Z,37.07
2018-10-06T01:37:44.417Z,40.27
2018-10-06T01:42:48.694Z,41.30
2018-10-06T01:47:52.448Z,42.67
2018-10-06T01:52:56.103Z,37.10
2018-10-06T01:57:59.725Z,34.80
2018-10-06T02:03:03.345Z,35.03
2018-10-06T02:08:08.905Z,36.77
2018-10-06T02:13:12.517Z,37.87
2018-10-06T02:18:16.168Z,35.47
2018-10-06T02:23:20.752Z,74.53
2018-10-06T02:28:25.696Z,33.47
2018-10-06T02:33:29.255Z,34.23
2018-10-06T02:38:33.104Z,39.00
2018-10-06T02:43:36.731Z,34.03
2018-10-06T02:48:40.341Z,32.70
2018-10-06T02:53:44.664Z,31.80
2018-10-06T02:58:48.269Z,34.83
2018-10-06T03:03:51.538Z,31.53
2018-10-06T03:08:55.324Z,53.80
2018-10-06T03:13:58.564Z,30.10
2018-10-06T03:19:02.986Z,37.77
2018-10-06T03:24:06.410Z,40.53
2018-10-06T03:29:10.017Z,36.10
2018-10-06T03:34:13.627Z,30.77
2018-10-06T03:39:18.240Z,96.43
2018-10-06T03:44:21.855Z,36.63
2018-10-06T03:49:25.472Z,32.00
2018-10-06T03:54:29.064Z,34.50
2018-10-06T03:59:32.638Z,52.87
2018-10-06T04:04:36.279Z,29.23
2018-10-06T04:09:40.023Z,30.30
2018-10-06T04:14:44.976Z,36.10
2018-10-06T04:19:48.913Z,27.37
2018-10-06T04:24:52.528Z,29.67
2018-10-06T04:29:56.419Z,27.60
2018-10-06T04:35:00.912Z,26.23
2018-10-06T04:40:04.923Z,27.50
2018-10-06T04:45:08.953Z,28.83
2018-10-06T04:50:12.593Z,24.37
2018-10-06T04:55:16.204Z,62.60
2018-10-06T05:00:20.160Z,25.50
2018-10-06T05:05:24.192Z,21.77
2018-10-06T05:10:28.440Z,28.43
2018-10-06T05:15:33.399Z,22.30
2018-10-06T05:20:38.132Z,23.20
2018-10-06T05:25:42.261Z,26.37
2018-10-06T05:30:45.911Z,26.97
2018-10-06T05:35:49.587Z,28.87
2018-10-06T05:40:53.333Z,36.60
2018-10-06T05:45:57.078Z,35.00
2018-10-06T05:51:00.673Z,33.67
2018-10-06T05:56:04.782Z,35.93
2018-10-06T06:01:08.383Z,30.27
2018-10-06T06:06:12.124Z,32.73
2018-10-06T06:11:16.290Z,32.13
2018-10-06T06:16:19.887Z,30.33
2018-10-06T06:21:26.989Z,31.20
2018-10-06T06:26:33.301Z,38.23
2018-10-06T06:31:37.379Z,30.73
2018-10-06T06:36:41.239Z,30.30
2018-10-06T06:41:44.843Z,47.53
2018-10-06T06:46:48.603Z,30.57
2018-10-06T06:51:52.188Z,50.37
2018-10-06T06:56:56.465Z,52.97
2018-10-06T07:02:04.209Z,34.13
2018-10-06T07:07:07.987Z,34.20
2018-10-06T07:12:11.579Z,37.80
2018-10-06T07:17:15.201Z,42.60
2018-10-06T07:22:18.861Z,42.93
2018-10-06T07:27:22.463Z,42.97
2018-10-06T07:32:26.290Z,44.83
2018-10-06T07:37:29.891Z,45.63
2018-10-06T07:42:33.608Z,46.90
2018-10-06T07:47:37.217Z,34.50
2018-10-06T07:52:40.788Z,30.90
2018-10-06T07:57:45.047Z,30.43
2018-10-06T08:02:48.628Z,26.37
2018-10-06T08:07:52.231Z,29.97
2018-10-06T08:12:56.340Z,28.80
2018-10-06T08:17:59.949Z,27.53
2018-10-06T08:23:03.869Z,44.97
2018-10-06T08:28:07.513Z,29.70
2018-10-06T08:33:11.138Z,26.97
2018-10-06T08:38:14.747Z,28.00
2018-10-06T08:43:18.394Z,27.97
2018-10-06T08:48:22.062Z,33.90
2018-10-06T08:53:25.697Z,34.20
2018-10-06T08:58:29.983Z,32.30
2018-10-06T09:03:35.609Z,27.27
2018-10-06T09:08:41.351Z,26.87
2018-10-06T09:13:44.962Z,23.20
2018-10-06T09:18:48.572Z,21.97
2018-10-06T09:23:52.211Z,23.23
2018-10-06T09:28:56.346Z,23.80
2018-10-06T09:34:00.593Z,22.10
2018-10-06T09:39:05.863Z,22.80
2018-10-06T09:44:09.588Z,21.90
2018-10-06T09:49:14.499Z,21.23
2018-10-06T09:54:18.125Z,17.30
2018-10-06T09:59:21.771Z,19.30
2018-10-06T10:09:33.704Z,20.00
2018-10-06T10:14:37.389Z,24.07
2018-10-06T10:19:41.053Z,18.93
2018-10-06T10:24:45.644Z,29.60
2018-10-06T10:29:49.271Z,25.50
2018-10-06T10:34:53.057Z,17.97
2018-10-06T10:39:56.656Z,20.83
2018-10-06T10:45:00.500Z,17.73
2018-10-06T10:50:04.335Z,19.50
2018-10-06T10:55:08.233Z,18.23
2018-10-06T11:00:11.909Z,17.00
2018-10-06T11:05:15.936Z,18.50
2018-10-06T11:10:25.211Z,18.60
2018-10-06T11:15:28.863Z,17.97
2018-10-06T11:20:32.539Z,19.90
2018-10-06T11:25:36.383Z,23.27
2018-10-06T11:30:42.809Z,18.00
2018-10-06T11:35:46.488Z,18.83
2018-10-06T11:40:53.125Z,20.00
2018-10-06T11:45:57.355Z,17.67
2018-10-06T11:51:00.975Z,19.07
2018-10-06T11:56:04.591Z,15.70
2018-10-06T12:01:07.862Z,17.47
2018-10-06T12:06:11.242Z,15.17
2018-10-06T12:11:15.425Z,14.87
2018-10-06T12:16:19.123Z,14.63
2018-10-06T12:21:22.776Z,16.03
2018-10-06T12:26:26.700Z,16.27
2018-10-06T12:31:30.444Z,14.10
2018-10-06T12:36:34.105Z,15.80
2018-10-06T12:41:38.147Z,13.87
2018-10-06T12:46:42.684Z,13.60
2018-10-06T12:51:46.301Z,18.03
2018-10-06T12:56:50.142Z,15.60
2018-10-06T13:01:53.795Z,14.70
2018-10-06T13:06:58.010Z,15.00
2018-10-06T13:12:01.651Z,16.60
2018-10-06T13:17:05.452Z,17.40
2018-10-06T13:22:09.398Z,16.00
2018-10-06T13:27:13.052Z,18.93
2018-10-06T13:32:17.424Z,16.10
2018-10-06T13:37:21.173Z,19.67
2018-10-06T13:42:24.559Z,21.30
2018-10-06T13:47:28.236Z,14.40
2018-10-06T13:52:31.932Z,14.47
2018-10-06T13:57:35.614Z,15.10
2018-10-06T14:02:41.605Z,14.30
2018-10-06T14:07:45.667Z,16.50
2018-10-06T14:12:49.508Z,16.63
2018-10-06T14:17:53.134Z,15.23
2018-10-06T14:22:56.788Z,18.10
2018-10-06T14:28:00.455Z,19.63
2018-10-06T14:33:04.810Z,16.97
2018-10-06T14:38:08.416Z,20.10
2018-10-06T14:43:12.851Z,17.47
2018-10-06T14:48:16.773Z,16.70
2018-10-06T14:53:23.862Z,22.30
2018-10-06T14:58:27.549Z,19.93
2018-10-06T15:03:31.964Z,18.87
2018-10-06T15:08:36.685Z,18.23
2018-10-06T15:13:40.310Z,17.33
2018-10-06T15:18:43.981Z,16.67
2018-10-06T15:23:48.316Z,18.10
2018-10-06T15:28:52.357Z,17.57
2018-10-06T15:33:56.366Z,18.00
2018-10-06T15:38:59.648Z,14.90
2018-10-06T15:44:03.604Z,16.40
2018-10-06T15:49:07.540Z,16.97
2018-10-06T15:54:10.880Z,22.63
2018-10-06T15:59:15.352Z,19.50
2018-10-06T16:04:19.513Z,18.13
2018-10-06T16:09:23.131Z,18.17
2018-10-06T16:14:27.065Z,20.53
2018-10-06T16:19:30.356Z,15.00
2018-10-06T16:24:33.639Z,17.33
2018-10-06T16:29:37.248Z,23.30
2018-10-06T16:34:40.905Z,16.40
2018-10-06T16:39:44.618Z,16.57
2018-10-06T16:44:48.209Z,14.93
2018-10-06T16:49:51.828Z,15.97
2018-10-06T16:54:56.336Z,11.70
2018-10-06T17:00:02.104Z,13.30
2018-10-06T17:05:07.168Z,12.70
2018-10-06T17:10:10.467Z,18.57
2018-10-06T17:15:15.863Z,15.33
2018-10-06T17:20:19.530Z,12.23
2018-10-06T17:25:23.230Z,15.87
2018-10-06T17:30:26.841Z,14.00
2018-10-06T17:35:30.527Z,27.37
2018-10-06T17:40:34.326Z,32.83
2018-10-06T17:45:38.984Z,33.10
2018-10-06T17:50:42.749Z,25.40
2018-10-06T17:55:46.257Z,24.27
2018-10-06T18:00:49.961Z,27.27
2018-10-06T18:05:54.136Z,14.97
2018-10-06T18:10:57.812Z,23.97
2018-10-06T18:16:01.540Z,14.33
2018-10-06T18:21:05.512Z,12.20
2018-10-06T18:26:10.210Z,17.73
2018-10-06T18:31:14.971Z,14.83
2018-10-06T18:36:18.670Z,18.73
2018-10-06T18:41:21.959Z,20.40
2018-10-06T18:46:26.399Z,13.43
2018-10-06T18:51:29.985Z,12.70
2018-10-06T18:56:33.769Z,14.40
2018-10-06T19:01:37.376Z,14.30
2018-10-06T19:06:40.763Z,12.37
2018-10-06T19:11:45.164Z,18.20
2018-10-06T19:16:48.863Z,17.30
2018-10-06T19:21:52.519Z,17.10
2018-10-06T19:26:56.474Z,14.10
2018-10-06T19:32:00.844Z,14.00
2018-10-06T19:37:04.688Z,11.90
2018-10-06T19:42:08.352Z,16.80
2018-10-06T19:47:11.983Z,15.67
2018-10-06T19:52:15.579Z,17.23
2018-10-06T19:57:21.392Z,24.17
2018-10-06T20:02:27.993Z,17.90
2018-10-06T20:07:31.808Z,16.90
2018-10-06T20:12:35.408Z,14.87
2018-10-06T20:17:39.145Z,14.43
2018-10-06T20:22:42.782Z,14.23
2018-10-06T20:27:47.171Z,14.40
2018-10-06T20:32:50.851Z,13.07
2018-10-06T20:37:54.460Z,17.10
2018-10-06T20:42:58.140Z,15.73
2018-10-06T20:48:03.096Z,14.77
2018-10-06T20:53:06.825Z,20.43
2018-10-06T20:58:10.109Z,30.70
2018-10-06T21:03:15.061Z,23.73
2018-10-06T21:08:20.758Z,18.00
2018-10-06T21:13:24.589Z,14.90
2018-10-06T21:18:28.363Z,23.90
2018-10-06T21:23:31.956Z,20.03
2018-10-06T21:28:36.009Z,19.33
2018-10-06T21:33:39.652Z,23.03
2018-10-06T21:38:43.280Z,14.50
2018-10-06T21:43:48.350Z,19.27
2018-10-06T21:48:52.148Z,14.67
2018-10-06T21:53:55.731Z,14.70
2018-10-06T21:58:59.481Z,17.33
2018-10-06T22:04:03.360Z,22.70
2018-10-06T22:09:06.931Z,18.10
2018-10-06T22:14:10.185Z,18.10
2018-10-06T22:19:14.192Z,21.13
2018-10-06T22:24:17.920Z,21.50
2018-10-06T22:29:21.637Z,23.33
2018-10-06T22:34:25.215Z,26.57
2018-10-06T22:39:29.273Z,22.57
2018-10-06T22:44:32.980Z,17.90
2018-10-06T22:49:36.659Z,13.43
2018-10-06T22:54:40.727Z,12.47
2018-10-06T22:59:44.374Z,13.40
2018-10-06T23:04:48.100Z,15.63
2018-10-06T23:09:52.440Z,17.27
2018-10-06T23:14:56.056Z,12.00
2018-10-06T23:20:00.703Z,14.10
2018-10-06T23:25:04.322Z,13.87
2018-10-06T23:30:08.461Z,13.27
2018-10-06T23:35:12.587Z,15.00
2018-10-06T23:40:16.200Z,13.83
2018-10-06T23:45:20.628Z,12.00
2018-10-06T23:50:25.229Z,12.80
2018-10-06T23:55:29.329Z,15.63
